»·PEaware :: N210AR KSAN-KTSP

N210AR :: KSAN-KTSP

FLIGHT INFORMATION

Flight Status: Arrived
Operator: Privately registered:
United States
More flights under this callsign
Pilot: Max S. (16657)
Aircraft: CESSNA 172 SKYHAWK
(C172)
More flights by this aircraft type
Origin: KSAN San Diego Intl-Lindbergh
United States
Destination: KTSP Tehachapi Mun
United States
More flights between these airports :: More routes between these airports
Route: +
File this flight plan on PilotEdge
Remarks: ALPHABET CHALLENGE
Altitude:
(Current/Filed)
6,500ft
Speed:
(Current/Filed)
110kts
Departed: 21-Sep-19 10:37 AM
Arrived: 21-Sep-19 12:18 PM
Distance/Time
Traveled:
157nm/1:40
Distance/Time
To Go:
Arrived

Flight Plot

Page will automatically refresh every two minutes.


Map Options




Map Legend


Flown Route
Filed Route
Departure Airport
Arrival Airport
Navaid (VOR, NDB)
Fix

Horizontal Profiles

Position Reports

Time Latitude Longitude Heading Altitude Ground
Speed
21-Sep-19 10:17 32.730894 -117.190870 123 19ft 0kts
21-Sep-19 10:18 32.730894 -117.190870 123 19ft 0kts
21-Sep-19 10:19 32.730894 -117.190870 123 19ft 0kts
21-Sep-19 10:20 32.730894 -117.190870 123 19ft 0kts
21-Sep-19 10:21 32.730894 -117.190870 123 19ft 0kts
21-Sep-19 10:22 32.730894 -117.190870 123 19ft 0kts
21-Sep-19 10:23 32.730894 -117.190870 123 19ft 0kts
21-Sep-19 10:24 32.730894 -117.190870 123 19ft 0kts
21-Sep-19 10:25 32.730894 -117.190870 123 19ft 0kts
21-Sep-19 10:26 32.730894 -117.190870 123 19ft 0kts
21-Sep-19 10:27 32.730894 -117.190870 123 19ft 0kts
21-Sep-19 10:28 32.730894 -117.190870 123 19ft 0kts
21-Sep-19 10:29 32.730814 -117.190521 60 19ft 4kts
21-Sep-19 10:30 32.732477 -117.189498 105 18ft 16kts
21-Sep-19 10:31 32.730886 -117.182868 105 19ft 29kts
21-Sep-19 10:32 32.729763 -117.178332 109 19ft 25kts
21-Sep-19 10:33 32.729557 -117.176653 37 19ft 0kts
21-Sep-19 10:34 32.729557 -117.176654 37 19ft 0kts
21-Sep-19 10:35 32.729557 -117.176654 37 19ft 0kts
21-Sep-19 10:36 32.732724 -117.186601 285 176ft 74kts
21-Sep-19 10:37 32.746427 -117.201233 323 1029ft 71kts
21-Sep-19 10:38 32.761032 -117.212764 321 1774ft 71kts
21-Sep-19 10:39 32.776502 -117.227194 320 2469ft 85kts
21-Sep-19 10:40 32.797465 -117.247359 314 2349ft 88kts
21-Sep-19 10:41 32.820473 -117.269051 321 2354ft 124kts
21-Sep-19 10:42 32.847120 -117.294175 321 2672ft 115kts
21-Sep-19 10:43 32.874251 -117.311300 337 3159ft 110kts
21-Sep-19 10:44 32.904329 -117.307614 9 3651ft 109kts
21-Sep-19 10:45 32.933911 -117.308940 342 4149ft 107kts
21-Sep-19 10:46 32.961977 -117.318538 333 4643ft 105kts
21-Sep-19 10:47 32.987049 -117.336093 326 5139ft 104kts
21-Sep-19 10:48 33.010783 -117.355414 327 5512ft 101kts
21-Sep-19 10:49 33.036499 -117.372764 321 5409ft 115kts
21-Sep-19 10:50 33.060097 -117.395220 321 5895ft 104kts
21-Sep-19 10:51 33.082337 -117.416257 322 6387ft 100kts
21-Sep-19 10:52 33.106727 -117.438195 323 6491ft 118kts
21-Sep-19 10:53 33.132822 -117.460033 331 6490ft 112kts
21-Sep-19 10:54 33.160037 -117.476467 345 6489ft 112kts
21-Sep-19 10:55 33.190392 -117.479783 344 6491ft 112kts
21-Sep-19 10:56 33.219100 -117.493642 328 6493ft 111kts
21-Sep-19 10:57 33.244796 -117.514237 322 6493ft 111kts
21-Sep-19 10:58 33.269395 -117.536668 320 6494ft 111kts
21-Sep-19 10:59 33.293308 -117.559214 319 6586ft 105kts
21-Sep-19 11:00 33.317764 -117.582333 319 6495ft 112kts
21-Sep-19 11:01 33.342163 -117.605300 319 6496ft 111kts
21-Sep-19 11:02 33.366495 -117.628280 319 6496ft 111kts
21-Sep-19 11:03 33.390766 -117.651299 319 6497ft 111kts
21-Sep-19 11:04 33.415084 -117.674250 319 6530ft 109kts
21-Sep-19 11:05 33.444029 -117.673733 343 6525ft 112kts
21-Sep-19 11:06 33.468561 -117.694214 341 6526ft 112kts
21-Sep-19 11:07 33.497219 -117.708715 327 6526ft 112kts
21-Sep-19 11:08 33.522626 -117.729782 320 6526ft 111kts
21-Sep-19 11:09 33.546478 -117.753399 317 6526ft 111kts
21-Sep-19 11:10 33.569350 -117.778135 315 6526ft 111kts
21-Sep-19 11:11 33.590916 -117.803142 313 6526ft 111kts
21-Sep-19 11:12 33.610564 -117.827497 312 6526ft 111kts
21-Sep-19 11:13 33.624830 -117.854320 297 6526ft 111kts
21-Sep-19 11:14 33.636977 -117.882525 296 6526ft 111kts
21-Sep-19 11:15 33.651324 -117.908871 306 6526ft 111kts
21-Sep-19 11:16 33.667210 -117.932323 310 6723ft 101kts
21-Sep-19 11:17 33.682635 -117.953053 312 7137ft 97kts
21-Sep-19 11:18 33.697776 -117.972314 313 7547ft 94kts
21-Sep-19 11:19 33.710329 -117.991734 313 7941ft 91kts
21-Sep-19 11:20 33.726316 -118.003712 338 8317ft 89kts
21-Sep-19 11:21 33.742978 -118.012505 330 8662ft 88kts
21-Sep-19 11:22 33.761238 -118.025904 326 8523ft 116kts
21-Sep-19 11:23 33.779330 -118.041038 318 8523ft 113kts
21-Sep-19 11:24 33.789028 -118.064189 291 8521ft 112kts
21-Sep-19 11:25 33.805151 -118.079689 343 8523ft 112kts
21-Sep-19 11:26 33.823738 -118.091397 320 8524ft 111kts
21-Sep-19 11:27 33.839043 -118.108278 317 8525ft 111kts
21-Sep-19 11:28 33.854582 -118.124826 318 8525ft 111kts
21-Sep-19 11:29 33.870195 -118.140950 319 8526ft 111kts
21-Sep-19 11:31 33.885460 -118.156511 319 8527ft 111kts
21-Sep-19 11:32 33.900542 -118.171806 319 8527ft 111kts
21-Sep-19 11:33 33.915341 -118.186783 319 8527ft 111kts
21-Sep-19 11:34 33.930265 -118.201870 319 8528ft 111kts
21-Sep-19 11:35 33.945081 -118.216843 319 8530ft 111kts
21-Sep-19 11:36 33.958996 -118.230962 319 8532ft 111kts
21-Sep-19 11:37 33.972893 -118.245010 319 8534ft 111kts
21-Sep-19 11:38 33.986269 -118.258545 319 8535ft 111kts
21-Sep-19 11:39 33.999745 -118.272188 319 8536ft 111kts
21-Sep-19 11:40 34.013630 -118.286271 319 8537ft 111kts
21-Sep-19 11:41 34.028341 -118.301026 320 8538ft 111kts
21-Sep-19 11:42 34.044696 -118.317126 320 8539ft 111kts
21-Sep-19 11:43 34.061976 -118.333992 320 8540ft 111kts
21-Sep-19 11:44 34.079998 -118.351526 320 8541ft 111kts
21-Sep-19 11:45 34.098727 -118.369732 320 8541ft 111kts
21-Sep-19 11:46 34.117148 -118.387633 320 8542ft 111kts
21-Sep-19 11:47 34.136840 -118.403622 347 8542ft 112kts
21-Sep-19 11:48 34.158923 -118.410763 351 8542ft 112kts
21-Sep-19 11:48 34.177483 -118.407069 32 8542ft 115kts
21-Sep-19 11:50 34.202811 -118.390437 20 8542ft 114kts
21-Sep-19 11:51 34.228203 -118.379783 15 8542ft 114kts
21-Sep-19 11:51 34.250599 -118.375697 11 8543ft 113kts
21-Sep-19 11:53 34.284864 -118.363705 14 8551ft 113kts
21-Sep-19 11:53 34.312997 -118.354424 12 8559ft 113kts
21-Sep-19 11:54 34.349663 -118.342870 12 8569ft 113kts
21-Sep-19 11:55 34.388092 -118.330786 12 8581ft 113kts
21-Sep-19 11:56 34.429327 -118.317808 12 8598ft 113kts
21-Sep-19 11:57 34.471045 -118.304680 12 8616ft 113kts
21-Sep-19 11:58 34.511997 -118.291745 12 8510ft 122kts
21-Sep-19 11:59 34.551432 -118.279288 12 8515ft 114kts
21-Sep-19 12:00 34.588081 -118.267710 12 8520ft 114kts
21-Sep-19 12:01 34.622618 -118.256786 12 8520ft 114kts
21-Sep-19 12:02 34.655668 -118.246324 12 8520ft 114kts
21-Sep-19 12:03 34.689541 -118.235591 12 8519ft 114kts
21-Sep-19 12:04 34.727476 -118.223558 12 8520ft 114kts
21-Sep-19 12:05 34.766174 -118.214138 4 8521ft 113kts
21-Sep-19 12:06 34.805985 -118.209841 3 8521ft 112kts
21-Sep-19 12:07 34.845853 -118.205758 2 8522ft 112kts
21-Sep-19 12:08 34.884540 -118.204192 342 8524ft 110kts
21-Sep-19 12:09 34.921246 -118.218374 343 8530ft 110kts
21-Sep-19 12:10 34.958922 -118.232948 344 8539ft 111kts
21-Sep-19 12:11 34.996995 -118.247606 345 8159ft 120kts
21-Sep-19 12:12 35.028289 -118.281573 311 7520ft 128kts
21-Sep-19 12:13 35.057753 -118.325146 311 6887ft 132kts
21-Sep-19 12:14 35.087911 -118.369721 311 6252ft 128kts
21-Sep-19 12:15 35.114445 -118.402466 303 5077ft 119kts
21-Sep-19 12:16 35.131294 -118.432689 307 4119ft 94kts
21-Sep-19 12:17 35.137379 -118.443442 301 3980ft 9kts
21-Sep-19 12:18 35.137812 -118.445008 191 3980ft 1kts
21-Sep-19 12:19 35.135822 -118.441453 124 3980ft 14kts
21-Sep-19 12:20 35.133895 -118.440268 185 3980ft 9kts
21-Sep-19 12:21 35.133810 -118.439188 99 3980ft 0kts
21-Sep-19 12:22 35.133810 -118.439188 99 3980ft 0kts
21-Sep-19 12:23 35.133810 -118.439188 99 3980ft 0kts

Navigation Log

Ident Type
Flight plan parsing failed, navigation log unavailable